Terminal Aerodrome Forecast
Issued by NWS Northern Indiana

Home | Current Version | Previous Version | Text Only | Print | Product List | Glossary Off
Versions: 1 2 3 4 5 6 7 8 9 10 11 12 13 14 15 16 17

000
FTUS43 KIWX 030923 AAA
TAFFWA
TAF AMD
KFWA 030923Z 0309/0406 VRB03KT P6SM BKN150
     FM031400 28008KT P6SM SCT060
     FM032200 30008KT P6SM SCT080=

USA.gov is the U.S. government's official web portal to all federal, state and local government web resources and services.